Cozumel, Mexico

4:22 PM EST on September 01, 2015 (GMT -0500)
APRSWXNET | | Change Station
CLOSE
Current Station
Personal Weather Station
Location: Cozumel,
Elevation: 36 ft
Nearby Weather Stations

Elev 36 ft 20.51 °N, 86.93 °W | Updated 24 minutes ago

Mostly Cloudy
Mostly Cloudy
88 °F
Feels Like 101 °F
N
14
Wind Variable Wind from SE
Gusts 20.0 mph

Today
High -- | Low -- °F
--% Chance of Precip.
Yesterday
High -- | Low -- °F
Precip. -- in
6:31 AM 7:03 PM
Waning Gibbous, 86% visible
Pressure 29.96 in
Visibility 6.0 miles
Clouds Mostly Cloudy 1500 ft
Mostly Cloudy 28000 ft
Heat Index 101 °F
Dew Point 77 °F
Humidity 71%
Rainfall in
Snow Depth Not available.
UV 5 out of 12
Pollen Not available.
Air Quality Not available.
Flu Activity Not available.
METAR MMUN 012049Z 04009KT 6SM BKN015 BKN280 31/25 A2995 RMK SLP144 57020 954 8/108 MDT CU AC HZY
Pressure 29.96 in
Visibility 6.0 miles
Clouds Mostly Cloudy 1500 ft
Mostly Cloudy 28000 ft
Heat Index 101 °F
Dew Point 77 °F
Humidity 71%
Rainfall in
Snow Depth Not available.
UV 5 out of 12
Pollen Not available.
Air Quality Not available.
Flu Activity Not available.
METAR MMUN 012049Z 04009KT 6SM BKN015 BKN280 31/25 A2995 RMK SLP144 57020 954 8/108 MDT CU AC HZY

10-Day Weather Forecast

×

Almanac

Astronomy

Sep. 01, 2015 Rise Set
Actual Time
Civil Twilight
Nautical Twilight
Astronomical Twilight
Moon
Length of Visible Light
Length of Day
Tomorrow will be .
, % of the Moon is Illuminated

Today's Extremes

Country Highs Country Lows

Community

WunderPhotos

Upload Photos

1,851,626 photos uploaded!

WunderBlogs® & News

Nearby

Air Quality

  Air Quality AQ Index Pollutant
Not available.

Snow Depth

Station Depth Elevation

Earthquake Activity

City Distance Mag. Time & Date
Minimum magnitude displayed is 2.5.

Coastal Water Temperatures

Place Temperature

Stations

Nearby Weather Stations

Station Location Temp. Windchill Dew Point Humidity Wind Precip. Elev Updated Type